Time;durP1;ratioP1;P1;durP2;ratioP2;P2;SDS_P1;SDS_P2;PMS_P1;PMS_P2;Temp;Humidity;BMP_temperature;BMP_pressure;BME280_temperature;BME280_humidity;BME280_pressure;Samples;Min_cycle;Max_cycle;Signal;HPM_P1;HPM_P2
2021/01/31 00:04:51;;;;;;;166.27;130.20;;;19.20;49.70;;;;;;4874584;57;21065;-25
2021/01/31 00:09:52;;;;;;;160.07;121.65;;;19.10;49.50;;;;;;4889394;53;21038;-29
2021/01/31 00:14:53;;;;;;;161.37;123.90;;;19.20;49.60;;;;;;4939160;53;21069;-27
2021/01/31 00:19:54;;;;;;;166.40;125.70;;;19.10;49.50;;;;;;4882908;53;20998;-18
2021/01/31 00:24:55;;;;;;;163.37;125.85;;;19.20;49.50;;;;;;4881201;53;20970;-28
2021/01/31 00:29:56;;;;;;;160.88;124.90;;;19.20;49.30;;;;;;4890085;53;21047;-26
2021/01/31 00:34:57;;;;;;;165.65;128.00;;;19.20;49.50;;;;;;4886002;53;20989;-23
2021/01/31 00:39:58;;;;;;;168.18;128.43;;;19.10;49.20;;;;;;4883499;53;21463;-29
2021/01/31 00:44:59;;;;;;;166.80;128.12;;;19.10;49.30;;;;;;4913163;53;21038;-27
2021/01/31 00:50:00;;;;;;;160.32;124.82;;;19.10;49.20;;;;;;4880843;53;21567;-21
2021/01/31 00:55:03;;;;;;;162.60;126.18;;;19.10;49.30;;;;;;4886207;53;21077;-27
2021/01/31 01:00:15;;;;;;;158.15;122.37;;;19.10;49.10;;;;;;4881627;53;21025;-20
2021/01/31 01:05:19;;;;;;;158.98;123.72;;;19.20;49.40;;;;;;4914257;53;21010;-26
2021/01/31 01:10:27;;;;;;;165.30;127.25;;;19.20;49.30;;;;;;4891694;53;20962;-24
2021/01/31 01:15:29;;;;;;;159.63;125.07;;;19.10;49.20;;;;;;4884299;53;20982;-24
2021/01/31 01:20:30;;;;;;;163.02;122.87;;;19.10;49.10;;;;;;4921869;53;21002;-26
2021/01/31 01:25:31;;;;;;;160.75;125.60;;;19.10;49.10;;;;;;4876743;53;21452;-22
2021/01/31 01:30:32;;;;;;;165.98;125.05;;;19.10;49.10;;;;;;4874762;57;21547;-27
2021/01/31 01:35:33;;;;;;;163.00;125.25;;;19.20;49.10;;;;;;4887856;53;21025;-27
2021/01/31 01:40:37;;;;;;;155.80;119.68;;;19.10;49.10;;;;;;4875531;53;21643;-26
2021/01/31 01:45:37;;;;;;;160.70;122.07;;;19.10;49.20;;;;;;4898870;53;21104;-24
2021/01/31 01:50:49;;;;;;;162.57;122.32;;;19.10;49.00;;;;;;4929988;53;21542;-23
2021/01/31 01:57:15;;;;;;;158.60;119.30;;;19.10;49.10;;;;;;4917272;53;21053;-26
2021/01/31 02:02:26;;;;;;;164.10;123.27;;;19.20;49.10;;;;;;4896588;53;21001;-25
2021/01/31 02:07:26;;;;;;;162.12;121.97;;;19.20;49.10;;;;;;4876924;53;21531;-23
2021/01/31 02:12:29;;;;;;;153.75;117.37;;;19.10;49.00;;;;;;4888013;53;20974;-27
2021/01/31 02:22:41;;;;;;;156.63;122.43;;;19.10;49.00;;;;;;4905973;53;20982;-26
2021/01/31 02:29:26;;;;;;;151.45;113.95;;;19.20;49.10;;;;;;4898958;53;20998;-22
2021/01/31 02:36:25;;;;;;;154.85;118.87;;;19.20;48.90;;;;;;4901014;53;21546;-25
2021/01/31 02:44:34;;;;;;;153.25;114.82;;;19.20;49.00;;;;;;4883853;53;21664;-25
2021/01/31 02:49:45;;;;;;;150.70;115.50;;;19.20;49.00;;;;;;4891971;53;21050;-22
2021/01/31 02:55:23;;;;;;;150.27;114.57;;;19.10;48.90;;;;;;4880687;53;21121;-26
2021/01/31 03:00:32;;;;;;;150.98;115.75;;;19.20;48.90;;;;;;4894155;53;21009;-25
2021/01/31 03:05:40;;;;;;;144.20;110.10;;;19.20;48.90;;;;;;4895297;53;21053;-26
2021/01/31 03:10:51;;;;;;;145.18;112.93;;;19.20;48.70;;;;;;4898578;53;21002;-27
2021/01/31 03:16:17;;;;;;;147.80;114.00;;;19.10;48.80;;;;;;4883765;53;21017;-27
2021/01/31 03:21:22;;;;;;;146.25;114.60;;;19.20;48.70;;;;;;4885332;53;21048;-24
2021/01/31 03:26:32;;;;;;;142.80;109.85;;;19.10;48.70;;;;;;4890755;53;21061;-25
2021/01/31 03:31:38;;;;;;;144.48;110.93;;;19.10;48.80;;;;;;4956469;53;20990;-25
2021/01/31 03:36:46;;;;;;;143.70;110.45;;;19.20;48.70;;;;;;4895290;53;20970;-21
2021/01/31 03:41:47;;;;;;;142.87;107.10;;;19.10;48.70;;;;;;4882184;53;21033;-20
2021/01/31 03:47:01;;;;;;;133.37;103.72;;;19.10;48.80;;;;;;4902108;53;20991;-24
2021/01/31 03:52:02;;;;;;;139.50;107.35;;;19.20;48.80;;;;;;4874858;57;20977;-25
2021/01/31 03:57:15;;;;;;;138.80;107.72;;;19.20;48.80;;;;;;4951901;53;21049;-26
2021/01/31 04:02:21;;;;;;;141.20;107.32;;;19.20;48.70;;;;;;4890814;53;21049;-25
2021/01/31 04:07:28;;;;;;;137.57;104.25;;;19.10;48.60;;;;;;4880150;53;21002;-28
2021/01/31 04:12:34;;;;;;;137.77;105.63;;;19.20;48.90;;;;;;4877882;53;20958;-24
2021/01/31 04:17:39;;;;;;;136.60;103.35;;;19.20;48.80;;;;;;4890986;53;20998;-28
2021/01/31 04:22:40;;;;;;;135.45;104.07;;;19.10;48.90;;;;;;4874749;57;21792;-27
2021/01/31 04:27:41;;;;;;;130.80;99.90;;;19.10;48.90;;;;;;4908125;53;21135;-24
2021/01/31 04:32:42;;;;;;;130.07;98.47;;;19.10;48.70;;;;;;4901755;53;21484;-23
2021/01/31 04:37:44;;;;;;;125.80;98.35;;;19.10;48.70;;;;;;4890237;53;21088;-25
2021/01/31 04:42:46;;;;;;;126.53;97.82;;;19.10;48.90;;;;;;4874527;57;21006;-25
2021/01/31 04:49:23;;;;;;;129.35;101.70;;;19.20;48.80;;;;;;4916556;53;21018;-27
2021/01/31 04:54:54;;;;;;;125.55;97.53;;;19.20;49.60;;;;;;4926267;53;21022;-27
2021/01/31 04:59:55;;;;;;;130.55;99.85;;;19.10;48.70;;;;;;4890168;53;21029;-28
2021/01/31 05:04:59;;;;;;;122.65;97.30;;;19.10;48.70;;;;;;4887987;53;21145;-22
2021/01/31 05:10:00;;;;;;;121.68;95.50;;;19.20;48.80;;;;;;4875488;57;20985;-24
2021/01/31 05:16:53;;;;;;;123.22;96.65;;;19.10;48.80;;;;;;4884838;53;21010;-26
2021/01/31 05:21:54;;;;;;;117.97;91.22;;;19.20;48.80;;;;;;4923135;53;21508;-27
2021/01/31 05:26:58;;;;;;;117.18;90.45;;;19.20;48.70;;;;;;4902794;53;21049;-28
2021/01/31 05:32:18;;;;;;;116.65;90.93;;;19.10;48.80;;;;;;4874267;57;21025;-25
2021/01/31 05:37:43;;;;;;;117.72;93.30;;;19.10;48.70;;;;;;4876823;53;21038;-31
2021/01/31 05:42:45;;;;;;;113.82;89.55;;;19.10;48.70;;;;;;4875334;57;21013;-25
2021/01/31 05:47:49;;;;;;;118.20;91.55;;;19.10;49.00;;;;;;4879984;53;21084;-24
2021/01/31 05:52:50;;;;;;;113.32;88.57;;;19.10;48.80;;;;;;4896564;53;21073;-20
2021/01/31 05:57:51;;;;;;;110.55;87.32;;;19.20;48.80;;;;;;4938311;53;21085;-23
2021/01/31 06:03:04;;;;;;;113.18;87.88;;;19.10;48.70;;;;;;4877010;53;20986;-27
2021/01/31 06:08:53;;;;;;;113.62;88.07;;;19.10;48.80;;;;;;4874452;57;21080;-24
2021/01/31 06:14:31;;;;;;;111.65;85.47;;;19.10;48.70;;;;;;4890001;53;21005;-26
2021/01/31 06:19:37;;;;;;;110.22;82.88;;;19.10;48.70;;;;;;4895886;53;21634;-26
2021/01/31 06:24:49;;;;;;;110.15;86.70;;;19.10;48.60;;;;;;4879804;53;20981;-27
2021/01/31 06:31:28;;;;;;;106.87;83.10;;;19.10;48.90;;;;;;4915141;53;21001;-26
2021/01/31 06:37:34;;;;;;;103.80;80.93;;;19.10;48.80;;;;;;4884623;53;21017;-22
2021/01/31 06:45:19;;;;;;;106.47;82.80;;;19.10;49.50;;;;;;4874855;53;20982;-25
2021/01/31 06:52:19;;;;;;;104.90;82.57;;;19.10;49.00;;;;;;4893525;53;21021;-25
2021/01/31 06:57:56;;;;;;;108.07;82.43;;;19.10;49.00;;;;;;4880805;53;21464;-21
2021/01/31 07:04:40;;;;;;;103.55;79.78;;;19.10;49.00;;;;;;4895989;53;20977;-25
2021/01/31 07:12:58;;;;;;;103.60;81.22;;;19.10;49.10;;;;;;4900309;53;20970;-26
2021/01/31 07:18:04;;;;;;;103.50;80.32;;;19.10;48.80;;;;;;4877038;53;21519;-29
2021/01/31 07:24:08;;;;;;;102.60;80.00;;;19.10;48.70;;;;;;4896609;53;21540;-28
2021/01/31 07:29:17;;;;;;;100.82;78.65;;;19.10;48.90;;;;;;4879888;53;21476;-26
2021/01/31 07:35:08;;;;;;;98.32;77.50;;;19.10;48.90;;;;;;4882098;53;21049;-23
2021/01/31 07:40:31;;;;;;;100.38;77.05;;;19.10;48.90;;;;;;4908490;53;20997;-24
2021/01/31 07:45:33;;;;;;;104.05;79.25;;;19.10;48.90;;;;;;4915735;53;21471;-22
2021/01/31 07:50:39;;;;;;;102.15;79.55;;;19.10;48.90;;;;;;4874973;54;21551;-18
2021/01/31 07:55:45;;;;;;;100.43;78.50;;;19.10;48.90;;;;;;4929761;53;21009;-26
2021/01/31 08:00:50;;;;;;;97.70;76.47;;;19.10;48.90;;;;;;4925817;53;21556;-27
2021/01/31 08:06:10;;;;;;;98.00;76.85;;;19.10;48.90;;;;;;4899830;53;21038;-19
2021/01/31 08:12:43;;;;;;;98.53;76.32;;;19.10;48.80;;;;;;4883820;53;21436;-21
2021/01/31 08:19:36;;;;;;;93.87;72.85;;;19.10;49.10;;;;;;4919758;53;20985;-26
2021/01/31 08:25:20;;;;;;;94.82;73.53;;;19.10;48.80;;;;;;4875380;53;21025;-24
2021/01/31 08:30:40;;;;;;;93.60;74.05;;;19.10;49.10;;;;;;4903208;53;21756;-26
2021/01/31 08:36:09;;;;;;;94.07;74.32;;;19.10;49.10;;;;;;4885660;53;21040;-25
2021/01/31 08:41:31;;;;;;;94.22;73.68;;;19.10;49.10;;;;;;4879405;53;21042;-25
2021/01/31 08:46:36;;;;;;;101.18;78.03;;;19.10;48.90;;;;;;4878831;53;21424;-20
2021/01/31 08:51:59;;;;;;;93.62;73.70;;;19.10;49.00;;;;;;4892400;53;21104;-22
2021/01/31 08:57:08;;;;;;;95.53;74.07;;;19.10;49.10;;;;;;4883322;53;21086;-26
2021/01/31 09:02:22;;;;;;;98.55;76.78;;;19.10;49.10;;;;;;4929937;53;20978;-23
2021/01/31 09:07:32;;;;;;;96.65;75.47;;;19.10;49.10;;;;;;4881532;53;21451;-17
2021/01/31 09:12:33;;;;;;;98.50;75.87;;;19.10;49.20;;;;;;4986070;53;20990;-26
2021/01/31 09:17:34;;;;;;;94.65;74.22;;;19.10;49.10;;;;;;4888535;53;21132;-25
2021/01/31 09:22:39;;;;;;;99.45;77.62;;;19.10;49.20;;;;;;4888398;53;21078;-21
2021/01/31 09:28:00;;;;;;;101.40;78.97;;;19.10;49.20;;;;;;4879649;53;21140;-25
2021/01/31 09:33:22;;;;;;;99.95;79.95;;;19.10;49.30;;;;;;4923110;53;21050;-20
2021/01/31 09:38:28;;;;;;;102.82;81.30;;;19.10;49.10;;;;;;4893746;53;21037;-25
2021/01/31 09:43:32;;;;;;;102.32;81.93;;;19.10;49.20;;;;;;4896398;53;21424;-24
2021/01/31 09:48:34;;;;;;;107.80;83.05;;;19.10;49.30;;;;;;4878956;53;21471;-24
2021/01/31 09:53:43;;;;;;;104.50;80.47;;;19.10;49.40;;;;;;4874452;54;21559;-26
2021/01/31 09:58:46;;;;;;;105.45;82.03;;;19.10;49.50;;;;;;4874510;57;20977;-25
2021/01/31 10:04:04;;;;;;;111.32;85.62;;;19.10;49.30;;;;;;4946535;53;21053;-26
2021/01/31 10:09:05;;;;;;;113.25;86.95;;;19.10;49.40;;;;;;4883983;53;21013;-26
2021/01/31 10:14:31;;;;;;;113.18;86.75;;;19.10;49.20;;;;;;4913517;53;20990;-24
2021/01/31 10:19:32;;;;;;;115.40;89.35;;;19.10;49.50;;;;;;4897549;53;21022;-26
2021/01/31 10:24:34;;;;;;;109.47;84.47;;;19.10;49.30;;;;;;4891009;53;22175;-22
2021/01/31 10:29:35;;;;;;;116.97;91.05;;;19.10;49.50;;;;;;4895127;53;20990;-24
2021/01/31 10:34:40;;;;;;;114.47;88.15;;;19.10;50.00;;;;;;4874910;54;20978;-26
2021/01/31 10:39:41;;;;;;;118.50;89.87;;;19.10;49.60;;;;;;4902141;53;21005;-29
2021/01/31 10:44:41;;;;;;;118.55;92.05;;;19.10;49.50;;;;;;4892716;53;21029;-24
2021/01/31 10:49:42;;;;;;;116.82;90.80;;;19.10;49.40;;;;;;4874783;54;21014;-26
2021/01/31 10:54:43;;;;;;;125.25;96.60;;;19.10;49.60;;;;;;4878797;53;21050;-26
2021/01/31 10:59:44;;;;;;;125.68;97.12;;;19.10;49.60;;;;;;4893717;53;21005;-26
2021/01/31 11:04:45;;;;;;;123.38;96.57;;;19.10;49.80;;;;;;4874409;57;21540;-26
2021/01/31 11:09:46;;;;;;;131.50;102.70;;;19.10;49.80;;;;;;4874775;54;21029;-29
2021/01/31 11:14:47;;;;;;;127.53;100.00;;;19.10;49.50;;;;;;4904775;53;20982;-27
2021/01/31 11:19:47;;;;;;;134.18;101.60;;;19.10;49.90;;;;;;4923627;53;21018;-27
2021/01/31 11:24:49;;;;;;;127.15;98.55;;;19.10;50.50;;;;;;4888295;53;21016;-25
2021/01/31 11:29:50;;;;;;;125.40;98.18;;;19.10;49.80;;;;;;4898250;53;21575;-25
2021/01/31 11:34:51;;;;;;;131.63;101.82;;;19.10;49.90;;;;;;4897258;53;21069;-23
2021/01/31 11:39:52;;;;;;;143.85;109.20;;;19.10;49.80;;;;;;4881556;53;20993;-23
2021/01/31 11:44:52;;;;;;;137.12;108.45;;;19.10;49.70;;;;;;4874946;57;20997;-24
2021/01/31 11:49:54;;;;;;;138.10;108.03;;;19.10;49.80;;;;;;4884944;53;21118;-22
2021/01/31 11:54:55;;;;;;;132.87;105.35;;;19.10;49.80;;;;;;4883143;53;21495;-23
2021/01/31 11:59:56;;;;;;;143.02;112.80;;;19.10;50.00;;;;;;4899755;53;20989;-16
2021/01/31 12:04:56;;;;;;;136.07;107.95;;;19.10;49.80;;;;;;4879434;53;21011;-25
2021/01/31 12:10:00;;;;;;;139.23;110.93;;;19.10;50.10;;;;;;4890529;53;21475;-24
2021/01/31 12:15:02;;;;;;;143.43;110.60;;;19.10;49.80;;;;;;4907003;53;21570;-25
2021/01/31 12:20:04;;;;;;;144.82;112.47;;;19.10;50.10;;;;;;4893193;53;21006;-25
2021/01/31 12:25:07;;;;;;;139.40;111.93;;;19.10;50.10;;;;;;4882427;53;21009;-28
2021/01/31 12:30:11;;;;;;;145.77;115.57;;;19.10;50.00;;;;;;4890016;53;21049;-30
2021/01/31 12:35:12;;;;;;;146.20;111.72;;;19.10;50.00;;;;;;4886654;53;21057;-27
2021/01/31 12:40:15;;;;;;;141.85;113.93;;;19.10;50.20;;;;;;4883426;53;21712;-20
2021/01/31 12:45:18;;;;;;;148.18;114.68;;;19.10;50.00;;;;;;4890344;53;21479;-20
2021/01/31 12:50:23;;;;;;;148.68;116.80;;;19.10;50.10;;;;;;4880522;53;20993;-26
2021/01/31 12:55:25;;;;;;;147.35;114.35;;;19.10;50.20;;;;;;4888920;53;21017;-27
2021/01/31 13:00:26;;;;;;;150.75;116.95;;;19.10;50.10;;;;;;4875745;53;21520;-22
2021/01/31 13:05:30;;;;;;;157.35;124.53;;;19.10;50.70;;;;;;4916789;53;21053;-27
2021/01/31 13:10:32;;;;;;;157.15;122.90;;;19.10;50.10;;;;;;4971908;53;21451;-23
2021/01/31 13:15:33;;;;;;;154.52;121.57;;;19.10;50.20;;;;;;4887022;53;20994;-27
2021/01/31 13:20:34;;;;;;;154.38;122.97;;;19.10;50.10;;;;;;4874179;57;20981;-27
2021/01/31 13:25:35;;;;;;;157.45;123.53;;;19.10;50.10;;;;;;4881194;53;21460;-25
2021/01/31 13:30:37;;;;;;;152.75;122.05;;;19.10;50.20;;;;;;4875045;57;21471;-26
2021/01/31 13:35:38;;;;;;;156.70;124.90;;;19.10;50.20;;;;;;4894541;53;21472;-26
2021/01/31 13:40:39;;;;;;;149.30;118.10;;;19.10;50.30;;;;;;4897706;53;21539;-25
2021/01/31 13:45:40;;;;;;;152.87;119.03;;;19.10;50.40;;;;;;4919290;53;20978;-23
2021/01/31 13:50:41;;;;;;;157.62;123.95;;;19.10;50.30;;;;;;4882049;53;20978;-20
2021/01/31 13:55:42;;;;;;;156.05;123.10;;;19.10;50.20;;;;;;4894967;53;21543;-22
2021/01/31 14:00:43;;;;;;;145.12;116.72;;;19.10;50.30;;;;;;4874705;57;21053;-25
2021/01/31 14:05:44;;;;;;;156.50;125.68;;;19.10;50.50;;;;;;4890083;53;21045;-19
2021/01/31 14:10:45;;;;;;;159.55;123.00;;;19.10;50.30;;;;;;4915247;53;21041;-22
2021/01/31 14:15:46;;;;;;;149.07;117.25;;;19.10;50.30;;;;;;4891488;53;21905;-20
2021/01/31 14:20:46;;;;;;;154.07;122.82;;;19.10;50.40;;;;;;4874445;57;21053;-21
2021/01/31 14:25:47;;;;;;;154.27;121.15;;;19.10;50.30;;;;;;4883348;53;21436;-24
2021/01/31 14:30:48;;;;;;;156.43;122.78;;;19.10;50.30;;;;;;4896405;53;20997;-24
2021/01/31 14:35:49;;;;;;;154.85;120.62;;;19.10;50.30;;;;;;4892816;53;20966;-26
2021/01/31 14:40:50;;;;;;;148.98;118.57;;;19.10;50.50;;;;;;4890134;53;21057;-25
2021/01/31 14:45:51;;;;;;;147.07;117.28;;;19.10;50.40;;;;;;4875105;54;21055;-23
2021/01/31 14:50:52;;;;;;;146.52;116.00;;;19.10;50.40;;;;;;4874923;53;21534;-27
2021/01/31 14:55:53;;;;;;;147.37;114.78;;;19.10;50.40;;;;;;4894076;53;21479;-24
2021/01/31 15:00:55;;;;;;;154.05;121.35;;;19.10;50.50;;;;;;4875640;53;21551;-26
2021/01/31 15:05:56;;;;;;;144.65;116.68;;;19.10;50.20;;;;;;4874674;57;21013;-27
2021/01/31 15:10:57;;;;;;;142.85;116.57;;;19.10;50.40;;;;;;4880763;53;21037;-27
2021/01/31 15:15:58;;;;;;;140.12;112.53;;;19.10;50.80;;;;;;4874797;57;21450;-26
2021/01/31 15:20:59;;;;;;;144.55;114.47;;;19.10;50.30;;;;;;4873732;54;21043;-23
2021/01/31 15:26:00;;;;;;;140.60;112.47;;;19.10;50.50;;;;;;4910885;53;21468;-25
2021/01/31 15:31:00;;;;;;;143.50;118.87;;;19.10;50.50;;;;;;4941252;53;21021;-27
2021/01/31 15:36:01;;;;;;;143.50;118.05;;;19.10;50.40;;;;;;4900675;53;21081;-27
2021/01/31 15:41:02;;;;;;;141.60;115.30;;;19.10;50.40;;;;;;4876909;53;21002;-26
2021/01/31 15:46:07;;;;;;;143.75;114.65;;;19.10;50.40;;;;;;4875075;57;21033;-27
2021/01/31 15:51:08;;;;;;;142.98;115.70;;;19.10;50.20;;;;;;4891840;53;20974;-19
2021/01/31 15:56:12;;;;;;;139.50;112.95;;;19.10;50.30;;;;;;4874058;57;21472;-24
2021/01/31 16:01:13;;;;;;;140.18;113.60;;;19.10;50.40;;;;;;4896432;53;21009;-24
2021/01/31 16:06:14;;;;;;;144.60;113.88;;;19.10;50.20;;;;;;4874916;57;21472;-21
2021/01/31 16:11:15;;;;;;;138.77;112.20;;;19.10;50.20;;;;;;4875120;54;21002;-27
2021/01/31 16:16:17;;;;;;;143.15;114.45;;;19.10;50.30;;;;;;4874649;57;21093;-25
2021/01/31 16:21:21;;;;;;;142.50;113.25;;;19.10;50.10;;;;;;4930466;53;21076;-27
2021/01/31 16:26:22;;;;;;;138.55;112.00;;;19.10;50.40;;;;;;4897815;53;20982;-27
2021/01/31 16:31:23;;;;;;;139.18;111.55;;;19.10;50.20;;;;;;4888571;53;21056;-27
2021/01/31 16:36:23;;;;;;;142.65;112.22;;;19.10;50.10;;;;;;4874118;57;21012;-25
2021/01/31 16:41:24;;;;;;;135.32;109.18;;;19.10;50.40;;;;;;4891348;53;21033;-27
2021/01/31 16:46:25;;;;;;;133.43;107.40;;;19.10;50.30;;;;;;4892218;53;21671;-25
2021/01/31 16:51:26;;;;;;;141.10;112.07;;;19.10;50.20;;;;;;4881598;53;21959;-22
2021/01/31 16:56:27;;;;;;;137.00;111.85;;;19.10;50.30;;;;;;4899222;53;21017;-29
2021/01/31 17:01:35;;;;;;;139.57;111.78;;;19.10;50.20;;;;;;4921255;53;20993;-26
2021/01/31 17:06:36;;;;;;;134.95;109.75;;;19.10;50.40;;;;;;4882680;53;20998;-26
2021/01/31 17:11:37;;;;;;;141.93;114.82;;;19.10;50.20;;;;;;4884254;53;21006;-23
2021/01/31 17:16:38;;;;;;;138.07;112.12;;;19.10;50.20;;;;;;4882968;53;21527;-23
2021/01/31 17:21:39;;;;;;;135.02;109.43;;;19.10;50.70;;;;;;4883002;53;21448;-27
2021/01/31 17:26:40;;;;;;;132.85;109.00;;;19.10;50.30;;;;;;4874409;57;20981;-23
2021/01/31 17:31:41;;;;;;;136.80;111.20;;;19.10;50.30;;;;;;4906360;53;20989;-21
2021/01/31 17:36:42;;;;;;;134.30;107.07;;;19.10;50.40;;;;;;4914097;53;21598;-27
2021/01/31 17:41:43;;;;;;;138.55;113.45;;;19.10;50.20;;;;;;4884657;53;21062;-28
2021/01/31 17:46:50;;;;;;;137.15;112.00;;;19.10;50.20;;;;;;4885483;53;21045;-25
2021/01/31 17:51:51;;;;;;;136.75;108.93;;;19.10;50.20;;;;;;4907395;53;21480;-26
2021/01/31 17:56:52;;;;;;;138.90;112.97;;;19.10;50.20;;;;;;4874951;57;20970;-26
2021/01/31 18:01:53;;;;;;;135.73;111.53;;;19.10;50.10;;;;;;4876984;53;21057;-24
2021/01/31 18:06:54;;;;;;;136.70;111.18;;;19.10;50.30;;;;;;4885160;53;21527;-24
2021/01/31 18:11:55;;;;;;;135.10;110.78;;;19.10;50.00;;;;;;4882336;53;20982;-21
2021/01/31 18:16:55;;;;;;;138.30;111.62;;;19.10;50.10;;;;;;4942157;53;21534;-24
2021/01/31 18:21:56;;;;;;;139.10;113.22;;;19.10;49.90;;;;;;4873364;57;21021;-26
2021/01/31 18:26:58;;;;;;;139.32;110.07;;;19.10;50.00;;;;;;4892590;53;21017;-24
2021/01/31 18:31:59;;;;;;;140.07;112.88;;;19.10;50.00;;;;;;4874064;57;21539;-26
2021/01/31 18:37:00;;;;;;;135.40;110.70;;;19.10;49.90;;;;;;4906905;53;20974;-28
2021/01/31 18:42:02;;;;;;;136.32;111.43;;;19.10;49.90;;;;;;4881590;53;21058;-23
2021/01/31 18:47:03;;;;;;;124.55;103.20;;;19.10;49.90;;;;;;4906794;53;21002;-28
2021/01/31 18:52:04;;;;;;;130.23;105.85;;;19.10;49.90;;;;;;4880523;53;21048;-21
2021/01/31 18:57:05;;;;;;;130.23;105.75;;;19.10;49.80;;;;;;4881032;53;20977;-23
2021/01/31 19:02:06;;;;;;;132.52;106.87;;;19.10;50.00;;;;;;4891435;53;20974;-29
2021/01/31 19:07:07;;;;;;;133.18;107.12;;;19.10;50.50;;;;;;4898139;53;21025;-31
2021/01/31 19:12:09;;;;;;;129.93;107.35;;;19.10;49.80;;;;;;4880006;53;21076;-25
2021/01/31 19:17:10;;;;;;;129.23;106.70;;;19.10;49.60;;;;;;4873942;57;20998;-26
2021/01/31 19:22:10;;;;;;;128.12;106.15;;;19.10;49.70;;;;;;4906723;53;20998;-27
2021/01/31 19:27:11;;;;;;;129.27;107.43;;;19.10;49.70;;;;;;4881201;53;21444;-23
2021/01/31 19:32:12;;;;;;;125.70;103.50;;;19.10;49.60;;;;;;4919806;53;21077;-25
2021/01/31 19:37:13;;;;;;;122.37;101.85;;;19.10;49.50;;;;;;4891853;53;20981;-21
2021/01/31 19:42:14;;;;;;;127.53;103.57;;;19.10;49.60;;;;;;4874111;57;21041;-22
2021/01/31 19:47:15;;;;;;;122.60;101.82;;;19.10;49.70;;;;;;4900047;53;21006;-28
2021/01/31 19:52:16;;;;;;;123.15;101.12;;;19.10;49.60;;;;;;4874848;57;21421;-25
2021/01/31 19:57:17;;;;;;;127.05;104.87;;;19.10;49.50;;;;;;4917879;53;20985;-29
2021/01/31 20:02:18;;;;;;;127.57;103.10;;;19.10;49.50;;;;;;4873831;57;21053;-24
2021/01/31 20:07:19;;;;;;;126.35;102.75;;;19.10;49.40;;;;;;4875825;54;21037;-25
2021/01/31 20:12:20;;;;;;;124.45;103.70;;;19.10;49.40;;;;;;4882794;53;21546;-26
2021/01/31 20:17:21;;;;;;;119.15;99.45;;;19.10;49.40;;;;;;4874742;57;21459;-23
2021/01/31 20:22:21;;;;;;;127.87;104.65;;;19.10;49.40;;;;;;4874535;57;20974;-23
2021/01/31 20:27:24;;;;;;;122.65;103.12;;;19.10;49.30;;;;;;4874362;57;20970;-26
2021/01/31 20:32:25;;;;;;;122.55;100.18;;;19.10;49.10;;;;;;4897955;53;21165;-25
2021/01/31 20:37:26;;;;;;;122.00;100.18;;;19.10;49.30;;;;;;4885477;53;21129;-29
2021/01/31 20:42:27;;;;;;;123.53;102.45;;;19.10;49.10;;;;;;4912928;53;21005;-26
2021/01/31 20:47:31;;;;;;;112.60;93.60;;;19.10;49.40;;;;;;4875031;54;20982;-25
2021/01/31 20:52:32;;;;;;;121.62;99.45;;;19.10;49.10;;;;;;4930518;53;21175;-26
2021/01/31 20:57:34;;;;;;;113.45;96.00;;;19.10;49.70;;;;;;4878012;53;21164;-22
2021/01/31 21:02:35;;;;;;;117.87;96.45;;;19.10;49.10;;;;;;4905155;53;21037;-27
2021/01/31 21:07:35;;;;;;;114.05;93.37;;;19.10;49.10;;;;;;4902818;53;21472;-26
2021/01/31 21:12:36;;;;;;;113.20;95.05;;;19.10;49.10;;;;;;4896431;53;21433;-24
2021/01/31 21:17:38;;;;;;;111.55;91.95;;;19.10;49.00;;;;;;4874588;57;21037;-24
2021/01/31 21:22:39;;;;;;;113.15;93.60;;;19.10;49.00;;;;;;4877589;53;21066;-25
2021/01/31 21:27:40;;;;;;;115.18;93.75;;;19.10;48.90;;;;;;4919177;53;21032;-26
2021/01/31 21:32:41;;;;;;;111.32;93.70;;;19.10;49.00;;;;;;4888934;53;21440;-26
2021/01/31 21:37:42;;;;;;;109.40;91.20;;;19.10;48.80;;;;;;4878271;53;21065;-28
2021/01/31 21:42:43;;;;;;;103.93;88.00;;;19.20;48.80;;;;;;4873747;57;20990;-27
2021/01/31 21:47:44;;;;;;;106.85;89.28;;;19.10;48.90;;;;;;4932780;53;21524;-23
2021/01/31 21:52:45;;;;;;;103.40;88.25;;;19.10;48.80;;;;;;4877609;53;21085;-17
2021/01/31 21:57:46;;;;;;;103.80;86.72;;;19.10;48.70;;;;;;4936699;53;20977;-25
2021/01/31 22:02:47;;;;;;;101.50;84.15;;;19.10;48.70;;;;;;4912748;53;21611;-26
2021/01/31 22:07:49;;;;;;;102.80;84.80;;;19.10;48.60;;;;;;4880560;53;20973;-23
2021/01/31 22:12:50;;;;;;;103.68;86.78;;;19.10;48.70;;;;;;4890692;53;21590;-26
2021/01/31 22:17:51;;;;;;;99.93;82.30;;;19.10;48.60;;;;;;4904795;53;20994;-20
2021/01/31 22:22:53;;;;;;;98.07;82.22;;;19.10;48.50;;;;;;4893014;53;21045;-25
2021/01/31 22:27:56;;;;;;;91.63;76.85;;;19.10;48.60;;;;;;4874609;57;21512;-22
2021/01/31 22:32:57;;;;;;;95.38;80.80;;;19.10;48.50;;;;;;4900789;53;21013;-25
2021/01/31 22:37:58;;;;;;;93.45;78.82;;;19.10;48.20;;;;;;4904921;53;21950;-26
2021/01/31 22:42:59;;;;;;;89.47;76.03;;;19.20;48.30;;;;;;4876795;53;21021;-27
2021/01/31 22:48:01;;;;;;;87.22;73.30;;;19.10;48.20;;;;;;4905850;53;21028;-26
2021/01/31 22:53:04;;;;;;;90.03;75.80;;;19.10;48.30;;;;;;4903642;53;21009;-20
2021/01/31 22:58:05;;;;;;;89.00;73.32;;;19.10;48.10;;;;;;4890016;53;21053;-27
2021/01/31 23:03:11;;;;;;;85.93;73.87;;;19.10;48.10;;;;;;4880364;53;22263;-26
2021/01/31 23:08:14;;;;;;;87.25;75.20;;;19.10;48.10;;;;;;4885025;53;20993;-23
2021/01/31 23:13:17;;;;;;;84.22;72.35;;;19.10;48.10;;;;;;4890957;53;21061;-24
2021/01/31 23:18:18;;;;;;;85.25;71.97;;;19.10;48.10;;;;;;4883425;53;20997;-26
2021/01/31 23:23:20;;;;;;;78.78;68.15;;;19.10;48.10;;;;;;4882814;53;21531;-27
2021/01/31 23:28:21;;;;;;;84.30;70.80;;;19.10;48.00;;;;;;4874640;54;21002;-23
2021/01/31 23:33:22;;;;;;;80.12;67.18;;;19.10;47.90;;;;;;4890187;53;21061;-25
2021/01/31 23:38:23;;;;;;;79.85;67.82;;;19.10;47.90;;;;;;4887536;53;21005;-22
2021/01/31 23:43:24;;;;;;;77.85;65.35;;;19.10;48.00;;;;;;4889314;53;21018;-23
2021/01/31 23:48:25;;;;;;;79.00;66.50;;;19.10;47.90;;;;;;4875617;54;21005;-28
2021/01/31 23:53:26;;;;;;;79.53;65.15;;;19.10;47.90;;;;;;4876075;53;21112;-26
2021/01/31 23:58:26;;;;;;;77.97;65.07;;;19.10;47.90;;;;;;4892255;53;21708;-24
